sensor_id;sensor_type;location;lat;lon;timestamp;P1;durP1;ratioP1;P2;durP2;ratioP2
56429;SDS011;42332;52.136;20.666;2023-04-25T00:00:18;23.20;;;11.80;;
56429;SDS011;42332;52.136;20.666;2023-04-25T00:02:44;25.33;;;11.88;;
56429;SDS011;42332;52.136;20.666;2023-04-25T00:05:11;21.77;;;11.88;;
56429;SDS011;42332;52.136;20.666;2023-04-25T00:07:36;20.60;;;10.38;;
56429;SDS011;42332;52.136;20.666;2023-04-25T00:10:02;17.25;;;9.68;;
56429;SDS011;42332;52.136;20.666;2023-04-25T00:12:28;19.38;;;9.20;;
56429;SDS011;42332;52.136;20.666;2023-04-25T00:14:54;17.80;;;9.50;;
56429;SDS011;42332;52.136;20.666;2023-04-25T00:17:22;19.15;;;10.27;;
56429;SDS011;42332;52.136;20.666;2023-04-25T00:19:49;21.40;;;10.48;;
56429;SDS011;42332;52.136;20.666;2023-04-25T00:22:15;19.35;;;10.32;;
56429;SDS011;42332;52.136;20.666;2023-04-25T00:24:40;15.60;;;8.95;;
56429;SDS011;42332;52.136;20.666;2023-04-25T00:27:06;20.40;;;10.20;;
56429;SDS011;42332;52.136;20.666;2023-04-25T00:29:31;28.63;;;10.70;;
56429;SDS011;42332;52.136;20.666;2023-04-25T00:31:56;18.23;;;9.77;;
56429;SDS011;42332;52.136;20.666;2023-04-25T00:34:22;18.48;;;8.98;;
56429;SDS011;42332;52.136;20.666;2023-04-25T00:36:47;23.10;;;10.50;;
56429;SDS011;42332;52.136;20.666;2023-04-25T00:39:13;17.02;;;9.45;;
56429;SDS011;42332;52.136;20.666;2023-04-25T00:41:38;17.55;;;8.95;;
56429;SDS011;42332;52.136;20.666;2023-04-25T00:44:04;20.40;;;8.85;;
56429;SDS011;42332;52.136;20.666;2023-04-25T00:46:31;16.35;;;8.40;;
56429;SDS011;42332;52.136;20.666;2023-04-25T00:48:57;15.25;;;7.88;;
56429;SDS011;42332;52.136;20.666;2023-04-25T00:51:22;16.65;;;8.27;;
56429;SDS011;42332;52.136;20.666;2023-04-25T00:53:51;16.80;;;8.75;;
56429;SDS011;42332;52.136;20.666;2023-04-25T00:56:16;17.77;;;9.13;;
56429;SDS011;42332;52.136;20.666;2023-04-25T00:58:42;14.75;;;7.18;;
56429;SDS011;42332;52.136;20.666;2023-04-25T01:01:08;15.00;;;8.18;;
56429;SDS011;42332;52.136;20.666;2023-04-25T01:03:34;16.83;;;8.63;;
56429;SDS011;42332;52.136;20.666;2023-04-25T01:06:05;15.27;;;8.05;;
56429;SDS011;42332;52.136;20.666;2023-04-25T01:08:34;19.90;;;9.25;;
56429;SDS011;42332;52.136;20.666;2023-04-25T01:11:00;15.82;;;8.35;;
56429;SDS011;42332;52.136;20.666;2023-04-25T01:13:26;14.38;;;7.32;;
56429;SDS011;42332;52.136;20.666;2023-04-25T01:15:51;16.65;;;7.85;;
56429;SDS011;42332;52.136;20.666;2023-04-25T01:18:16;13.77;;;6.78;;
56429;SDS011;42332;52.136;20.666;2023-04-25T01:20:43;14.20;;;7.95;;
56429;SDS011;42332;52.136;20.666;2023-04-25T01:23:08;14.65;;;7.38;;
56429;SDS011;42332;52.136;20.666;2023-04-25T01:25:34;15.32;;;7.53;;
56429;SDS011;42332;52.136;20.666;2023-04-25T01:28:00;15.05;;;6.90;;
56429;SDS011;42332;52.136;20.666;2023-04-25T01:30:25;13.27;;;7.07;;
56429;SDS011;42332;52.136;20.666;2023-04-25T01:32:52;15.68;;;6.78;;
56429;SDS011;42332;52.136;20.666;2023-04-25T01:35:18;15.60;;;7.22;;
56429;SDS011;42332;52.136;20.666;2023-04-25T01:37:44;13.63;;;7.18;;
56429;SDS011;42332;52.136;20.666;2023-04-25T01:40:10;16.33;;;7.05;;
56429;SDS011;42332;52.136;20.666;2023-04-25T01:42:38;16.15;;;6.97;;
56429;SDS011;42332;52.136;20.666;2023-04-25T01:45:06;16.38;;;7.50;;
56429;SDS011;42332;52.136;20.666;2023-04-25T01:47:32;16.52;;;7.05;;
56429;SDS011;42332;52.136;20.666;2023-04-25T01:49:59;13.73;;;7.55;;
56429;SDS011;42332;52.136;20.666;2023-04-25T01:52:25;13.68;;;7.25;;
56429;SDS011;42332;52.136;20.666;2023-04-25T01:54:50;13.70;;;7.32;;
56429;SDS011;42332;52.136;20.666;2023-04-25T01:57:16;13.90;;;6.63;;
56429;SDS011;42332;52.136;20.666;2023-04-25T01:59:41;19.40;;;7.45;;
56429;SDS011;42332;52.136;20.666;2023-04-25T02:02:07;15.13;;;6.80;;
56429;SDS011;42332;52.136;20.666;2023-04-25T02:04:33;17.17;;;7.13;;
56429;SDS011;42332;52.136;20.666;2023-04-25T02:06:58;11.77;;;5.95;;
56429;SDS011;42332;52.136;20.666;2023-04-25T02:09:24;12.55;;;5.78;;
56429;SDS011;42332;52.136;20.666;2023-04-25T02:11:49;14.50;;;6.35;;
56429;SDS011;42332;52.136;20.666;2023-04-25T02:14:14;14.55;;;6.47;;
56429;SDS011;42332;52.136;20.666;2023-04-25T02:16:40;15.88;;;7.18;;
56429;SDS011;42332;52.136;20.666;2023-04-25T02:19:06;13.10;;;6.53;;
56429;SDS011;42332;52.136;20.666;2023-04-25T02:21:31;10.82;;;5.93;;
56429;SDS011;42332;52.136;20.666;2023-04-25T02:23:57;15.18;;;6.35;;
56429;SDS011;42332;52.136;20.666;2023-04-25T02:26:22;13.40;;;6.70;;
56429;SDS011;42332;52.136;20.666;2023-04-25T02:28:48;14.18;;;6.60;;
56429;SDS011;42332;52.136;20.666;2023-04-25T02:31:14;12.75;;;6.70;;
56429;SDS011;42332;52.136;20.666;2023-04-25T02:33:40;15.35;;;6.13;;
56429;SDS011;42332;52.136;20.666;2023-04-25T02:36:05;11.75;;;5.13;;
56429;SDS011;42332;52.136;20.666;2023-04-25T02:38:31;13.43;;;6.85;;
56429;SDS011;42332;52.136;20.666;2023-04-25T02:40:56;13.93;;;6.20;;
56429;SDS011;42332;52.136;20.666;2023-04-25T02:43:22;14.57;;;7.03;;
56429;SDS011;42332;52.136;20.666;2023-04-25T02:45:47;13.35;;;6.68;;
56429;SDS011;42332;52.136;20.666;2023-04-25T02:48:12;10.65;;;5.47;;
56429;SDS011;42332;52.136;20.666;2023-04-25T02:50:38;14.63;;;6.57;;
56429;SDS011;42332;52.136;20.666;2023-04-25T02:53:03;11.40;;;5.88;;
56429;SDS011;42332;52.136;20.666;2023-04-25T02:55:28;15.85;;;6.13;;
56429;SDS011;42332;52.136;20.666;2023-04-25T02:57:54;15.23;;;6.07;;
56429;SDS011;42332;52.136;20.666;2023-04-25T03:00:20;13.60;;;5.75;;
56429;SDS011;42332;52.136;20.666;2023-04-25T03:02:47;9.68;;;5.22;;
56429;SDS011;42332;52.136;20.666;2023-04-25T03:05:12;10.10;;;5.90;;
56429;SDS011;42332;52.136;20.666;2023-04-25T03:07:37;12.35;;;4.90;;
56429;SDS011;42332;52.136;20.666;2023-04-25T03:10:04;10.43;;;4.32;;
56429;SDS011;42332;52.136;20.666;2023-04-25T03:12:31;11.20;;;5.82;;
56429;SDS011;42332;52.136;20.666;2023-04-25T03:14:56;11.07;;;4.38;;
56429;SDS011;42332;52.136;20.666;2023-04-25T03:17:22;12.57;;;5.30;;
56429;SDS011;42332;52.136;20.666;2023-04-25T03:19:47;11.30;;;4.65;;
56429;SDS011;42332;52.136;20.666;2023-04-25T03:22:13;10.43;;;5.00;;
56429;SDS011;42332;52.136;20.666;2023-04-25T03:24:38;7.85;;;3.97;;
56429;SDS011;42332;52.136;20.666;2023-04-25T03:27:03;10.70;;;5.20;;
56429;SDS011;42332;52.136;20.666;2023-04-25T03:29:29;9.82;;;5.10;;
56429;SDS011;42332;52.136;20.666;2023-04-25T03:31:54;4.65;;;2.53;;
56429;SDS011;42332;52.136;20.666;2023-04-25T03:34:20;10.23;;;4.70;;
56429;SDS011;42332;52.136;20.666;2023-04-25T03:36:46;8.32;;;4.32;;
56429;SDS011;42332;52.136;20.666;2023-04-25T03:39:11;9.77;;;4.85;;
56429;SDS011;42332;52.136;20.666;2023-04-25T03:41:37;11.00;;;5.25;;
56429;SDS011;42332;52.136;20.666;2023-04-25T03:44:02;12.15;;;5.70;;
56429;SDS011;42332;52.136;20.666;2023-04-25T03:46:28;12.90;;;4.85;;
56429;SDS011;42332;52.136;20.666;2023-04-25T03:48:53;11.25;;;5.35;;
56429;SDS011;42332;52.136;20.666;2023-04-25T03:51:18;11.13;;;5.13;;
56429;SDS011;42332;52.136;20.666;2023-04-25T03:53:44;9.98;;;4.57;;
56429;SDS011;42332;52.136;20.666;2023-04-25T03:56:09;9.40;;;6.05;;
56429;SDS011;42332;52.136;20.666;2023-04-25T03:58:34;10.57;;;5.65;;
56429;SDS011;42332;52.136;20.666;2023-04-25T04:01:00;11.68;;;5.15;;
56429;SDS011;42332;52.136;20.666;2023-04-25T04:03:27;13.73;;;6.15;;
56429;SDS011;42332;52.136;20.666;2023-04-25T04:05:53;14.07;;;6.55;;
56429;SDS011;42332;52.136;20.666;2023-04-25T04:08:18;14.45;;;5.22;;
56429;SDS011;42332;52.136;20.666;2023-04-25T04:10:43;13.93;;;6.25;;
56429;SDS011;42332;52.136;20.666;2023-04-25T04:13:09;12.88;;;6.25;;
56429;SDS011;42332;52.136;20.666;2023-04-25T04:15:34;10.13;;;5.45;;
56429;SDS011;42332;52.136;20.666;2023-04-25T04:18:00;15.88;;;6.53;;
56429;SDS011;42332;52.136;20.666;2023-04-25T04:20:28;13.85;;;7.13;;
56429;SDS011;42332;52.136;20.666;2023-04-25T04:22:55;15.48;;;7.45;;
56429;SDS011;42332;52.136;20.666;2023-04-25T04:25:20;13.40;;;7.03;;
56429;SDS011;42332;52.136;20.666;2023-04-25T04:27:45;15.20;;;7.72;;
56429;SDS011;42332;52.136;20.666;2023-04-25T04:30:12;11.38;;;4.90;;
56429;SDS011;42332;52.136;20.666;2023-04-25T04:32:37;15.27;;;7.63;;
56429;SDS011;42332;52.136;20.666;2023-04-25T04:35:03;13.43;;;7.35;;
56429;SDS011;42332;52.136;20.666;2023-04-25T04:37:29;16.73;;;7.97;;
56429;SDS011;42332;52.136;20.666;2023-04-25T04:39:56;14.02;;;7.85;;
56429;SDS011;42332;52.136;20.666;2023-04-25T04:42:21;17.70;;;8.48;;
56429;SDS011;42332;52.136;20.666;2023-04-25T04:44:46;16.05;;;8.15;;
56429;SDS011;42332;52.136;20.666;2023-04-25T04:47:12;10.95;;;5.22;;
56429;SDS011;42332;52.136;20.666;2023-04-25T04:49:39;15.98;;;8.55;;
56429;SDS011;42332;52.136;20.666;2023-04-25T04:52:04;14.48;;;7.72;;
56429;SDS011;42332;52.136;20.666;2023-04-25T04:54:30;14.93;;;7.75;;
56429;SDS011;42332;52.136;20.666;2023-04-25T04:56:55;15.80;;;8.05;;
56429;SDS011;42332;52.136;20.666;2023-04-25T04:59:21;14.93;;;8.30;;
56429;SDS011;42332;52.136;20.666;2023-04-25T05:01:46;16.55;;;8.27;;
56429;SDS011;42332;52.136;20.666;2023-04-25T05:04:12;14.15;;;8.05;;
56429;SDS011;42332;52.136;20.666;2023-04-25T05:06:37;16.20;;;8.63;;
56429;SDS011;42332;52.136;20.666;2023-04-25T05:09:02;12.82;;;6.90;;
56429;SDS011;42332;52.136;20.666;2023-04-25T05:11:28;18.40;;;8.15;;
56429;SDS011;42332;52.136;20.666;2023-04-25T05:13:54;18.38;;;9.65;;
56429;SDS011;42332;52.136;20.666;2023-04-25T05:16:19;24.63;;;8.32;;
56429;SDS011;42332;52.136;20.666;2023-04-25T05:18:45;16.45;;;8.65;;
56429;SDS011;42332;52.136;20.666;2023-04-25T05:21:11;17.73;;;8.65;;
56429;SDS011;42332;52.136;20.666;2023-04-25T05:23:36;14.23;;;7.30;;
56429;SDS011;42332;52.136;20.666;2023-04-25T05:26:02;17.77;;;9.23;;
56429;SDS011;42332;52.136;20.666;2023-04-25T05:28:27;17.08;;;7.53;;
56429;SDS011;42332;52.136;20.666;2023-04-25T05:30:52;16.98;;;8.23;;
56429;SDS011;42332;52.136;20.666;2023-04-25T05:33:18;16.20;;;8.07;;
56429;SDS011;42332;52.136;20.666;2023-04-25T05:35:43;17.02;;;8.43;;
56429;SDS011;42332;52.136;20.666;2023-04-25T05:38:09;16.17;;;8.40;;
56429;SDS011;42332;52.136;20.666;2023-04-25T05:40:34;21.27;;;9.30;;
56429;SDS011;42332;52.136;20.666;2023-04-25T05:43:00;17.33;;;8.65;;
56429;SDS011;42332;52.136;20.666;2023-04-25T05:45:25;14.25;;;8.15;;
56429;SDS011;42332;52.136;20.666;2023-04-25T05:47:51;18.98;;;8.80;;
56429;SDS011;42332;52.136;20.666;2023-04-25T05:50:16;15.10;;;8.52;;
56429;SDS011;42332;52.136;20.666;2023-04-25T05:52:41;12.02;;;6.93;;
56429;SDS011;42332;52.136;20.666;2023-04-25T05:55:07;11.95;;;5.45;;
56429;SDS011;42332;52.136;20.666;2023-04-25T05:57:33;12.85;;;6.85;;
56429;SDS011;42332;52.136;20.666;2023-04-25T05:59:58;12.10;;;6.90;;
56429;SDS011;42332;52.136;20.666;2023-04-25T06:02:23;13.23;;;5.85;;
56429;SDS011;42332;52.136;20.666;2023-04-25T06:04:49;7.22;;;4.30;;
56429;SDS011;42332;52.136;20.666;2023-04-25T06:07:15;13.98;;;6.72;;
56429;SDS011;42332;52.136;20.666;2023-04-25T06:09:41;10.65;;;5.13;;
56429;SDS011;42332;52.136;20.666;2023-04-25T06:12:06;13.35;;;7.03;;
56429;SDS011;42332;52.136;20.666;2023-04-25T06:14:32;12.25;;;5.22;;
56429;SDS011;42332;52.136;20.666;2023-04-25T06:16:58;12.13;;;5.40;;
56429;SDS011;42332;52.136;20.666;2023-04-25T06:19:23;11.85;;;6.07;;
56429;SDS011;42332;52.136;20.666;2023-04-25T06:21:49;15.15;;;7.35;;
56429;SDS011;42332;52.136;20.666;2023-04-25T06:24:14;17.20;;;7.55;;
56429;SDS011;42332;52.136;20.666;2023-04-25T06:26:39;15.80;;;8.20;;
56429;SDS011;42332;52.136;20.666;2023-04-25T06:29:05;21.67;;;10.90;;
56429;SDS011;42332;52.136;20.666;2023-04-25T06:31:30;15.68;;;7.95;;
56429;SDS011;42332;52.136;20.666;2023-04-25T06:33:57;11.10;;;7.30;;
56429;SDS011;42332;52.136;20.666;2023-04-25T06:36:23;14.50;;;7.53;;
56429;SDS011;42332;52.136;20.666;2023-04-25T06:38:53;14.30;;;7.00;;
56429;SDS011;42332;52.136;20.666;2023-04-25T06:41:19;12.93;;;6.55;;
56429;SDS011;42332;52.136;20.666;2023-04-25T06:43:45;13.95;;;5.78;;
56429;SDS011;42332;52.136;20.666;2023-04-25T06:46:10;11.45;;;4.75;;
56429;SDS011;42332;52.136;20.666;2023-04-25T06:48:36;8.02;;;3.75;;
56429;SDS011;42332;52.136;20.666;2023-04-25T06:51:01;11.63;;;5.45;;
56429;SDS011;42332;52.136;20.666;2023-04-25T06:53:26;10.27;;;4.65;;
56429;SDS011;42332;52.136;20.666;2023-04-25T06:55:52;10.88;;;3.80;;
56429;SDS011;42332;52.136;20.666;2023-04-25T06:58:17;11.43;;;6.28;;
56429;SDS011;42332;52.136;20.666;2023-04-25T07:00:43;10.05;;;5.43;;
56429;SDS011;42332;52.136;20.666;2023-04-25T07:03:08;8.13;;;4.32;;
56429;SDS011;42332;52.136;20.666;2023-04-25T07:05:34;6.57;;;3.25;;
56429;SDS011;42332;52.136;20.666;2023-04-25T07:07:59;5.50;;;3.05;;
56429;SDS011;42332;52.136;20.666;2023-04-25T07:10:25;10.80;;;3.65;;
56429;SDS011;42332;52.136;20.666;2023-04-25T07:12:50;8.75;;;4.55;;
56429;SDS011;42332;52.136;20.666;2023-04-25T07:15:16;16.52;;;4.43;;
56429;SDS011;42332;52.136;20.666;2023-04-25T07:17:41;7.40;;;4.15;;
56429;SDS011;42332;52.136;20.666;2023-04-25T07:20:07;10.15;;;4.75;;
56429;SDS011;42332;52.136;20.666;2023-04-25T07:22:34;8.48;;;4.20;;
56429;SDS011;42332;52.136;20.666;2023-04-25T07:24:59;7.50;;;4.10;;
56429;SDS011;42332;52.136;20.666;2023-04-25T07:27:25;7.38;;;3.58;;
56429;SDS011;42332;52.136;20.666;2023-04-25T07:29:50;8.05;;;4.50;;
56429;SDS011;42332;52.136;20.666;2023-04-25T07:32:15;10.55;;;5.38;;
56429;SDS011;42332;52.136;20.666;2023-04-25T07:34:41;8.63;;;4.85;;
56429;SDS011;42332;52.136;20.666;2023-04-25T07:37:06;13.05;;;5.20;;
56429;SDS011;42332;52.136;20.666;2023-04-25T07:39:31;8.48;;;4.43;;
56429;SDS011;42332;52.136;20.666;2023-04-25T07:41:57;6.75;;;2.75;;
56429;SDS011;42332;52.136;20.666;2023-04-25T07:44:27;11.02;;;4.30;;
56429;SDS011;42332;52.136;20.666;2023-04-25T07:46:52;8.60;;;4.70;;
56429;SDS011;42332;52.136;20.666;2023-04-25T07:49:18;8.68;;;4.97;;
56429;SDS011;42332;52.136;20.666;2023-04-25T07:51:43;9.60;;;5.07;;
56429;SDS011;42332;52.136;20.666;2023-04-25T07:54:09;7.53;;;4.22;;
56429;SDS011;42332;52.136;20.666;2023-04-25T07:56:36;8.88;;;4.35;;
56429;SDS011;42332;52.136;20.666;2023-04-25T07:59:01;7.93;;;3.42;;
56429;SDS011;42332;52.136;20.666;2023-04-25T08:01:26;7.30;;;4.00;;
56429;SDS011;42332;52.136;20.666;2023-04-25T08:03:52;8.68;;;4.20;;
56429;SDS011;42332;52.136;20.666;2023-04-25T08:06:18;5.38;;;2.70;;
56429;SDS011;42332;52.136;20.666;2023-04-25T08:08:43;6.85;;;3.78;;
56429;SDS011;42332;52.136;20.666;2023-04-25T08:11:09;7.22;;;3.13;;
56429;SDS011;42332;52.136;20.666;2023-04-25T08:13:34;9.52;;;4.35;;
56429;SDS011;42332;52.136;20.666;2023-04-25T08:16:00;9.35;;;4.50;;
56429;SDS011;42332;52.136;20.666;2023-04-25T08:18:25;8.63;;;3.88;;
56429;SDS011;42332;52.136;20.666;2023-04-25T08:20:50;6.65;;;3.28;;
56429;SDS011;42332;52.136;20.666;2023-04-25T08:23:16;9.02;;;5.20;;
56429;SDS011;42332;52.136;20.666;2023-04-25T08:25:41;8.73;;;4.10;;
56429;SDS011;42332;52.136;20.666;2023-04-25T08:28:06;7.50;;;3.75;;
56429;SDS011;42332;52.136;20.666;2023-04-25T08:30:32;7.22;;;3.92;;
56429;SDS011;42332;52.136;20.666;2023-04-25T08:32:57;10.52;;;4.50;;
56429;SDS011;42332;52.136;20.666;2023-04-25T08:35:23;7.25;;;3.30;;
56429;SDS011;42332;52.136;20.666;2023-04-25T08:37:48;8.25;;;3.92;;
56429;SDS011;42332;52.136;20.666;2023-04-25T08:40:14;10.63;;;4.38;;
56429;SDS011;42332;52.136;20.666;2023-04-25T08:42:41;7.85;;;3.97;;
56429;SDS011;42332;52.136;20.666;2023-04-25T08:45:07;7.78;;;4.35;;
56429;SDS011;42332;52.136;20.666;2023-04-25T08:47:33;8.45;;;5.10;;
56429;SDS011;42332;52.136;20.666;2023-04-25T08:49:59;3.80;;;2.38;;
56429;SDS011;42332;52.136;20.666;2023-04-25T08:52:25;10.73;;;4.85;;
56429;SDS011;42332;52.136;20.666;2023-04-25T08:54:53;9.25;;;4.47;;
56429;SDS011;42332;52.136;20.666;2023-04-25T08:57:19;15.93;;;6.18;;
56429;SDS011;42332;52.136;20.666;2023-04-25T08:59:45;9.20;;;4.72;;
56429;SDS011;42332;52.136;20.666;2023-04-25T09:02:12;9.95;;;5.25;;
56429;SDS011;42332;52.136;20.666;2023-04-25T09:04:43;7.97;;;4.68;;
56429;SDS011;42332;52.136;20.666;2023-04-25T09:07:08;11.80;;;4.07;;
56429;SDS011;42332;52.136;20.666;2023-04-25T09:09:34;11.35;;;5.68;;
56429;SDS011;42332;52.136;20.666;2023-04-25T09:12:00;18.65;;;9.95;;
56429;SDS011;42332;52.136;20.666;2023-04-25T09:14:26;14.88;;;7.97;;
56429;SDS011;42332;52.136;20.666;2023-04-25T09:16:57;12.90;;;7.47;;
56429;SDS011;42332;52.136;20.666;2023-04-25T09:21:49;13.90;;;7.65;;
56429;SDS011;42332;52.136;20.666;2023-04-25T09:24:15;17.50;;;7.20;;
56429;SDS011;42332;52.136;20.666;2023-04-25T09:26:40;8.73;;;4.63;;
56429;SDS011;42332;52.136;20.666;2023-04-25T09:29:06;11.38;;;6.28;;
56429;SDS011;42332;52.136;20.666;2023-04-25T09:31:32;8.85;;;5.20;;
56429;SDS011;42332;52.136;20.666;2023-04-25T09:33:59;9.32;;;5.32;;
56429;SDS011;42332;52.136;20.666;2023-04-25T09:36:26;10.63;;;6.75;;
56429;SDS011;42332;52.136;20.666;2023-04-25T09:38:51;10.30;;;6.30;;
56429;SDS011;42332;52.136;20.666;2023-04-25T09:41:22;12.45;;;6.55;;
56429;SDS011;42332;52.136;20.666;2023-04-25T09:43:48;12.90;;;6.38;;
56429;SDS011;42332;52.136;20.666;2023-04-25T09:46:14;6.95;;;3.92;;
56429;SDS011;42332;52.136;20.666;2023-04-25T09:48:40;10.90;;;5.75;;
56429;SDS011;42332;52.136;20.666;2023-04-25T09:51:13;10.80;;;5.80;;
56429;SDS011;42332;52.136;20.666;2023-04-25T09:53:43;11.50;;;6.07;;
56429;SDS011;42332;52.136;20.666;2023-04-25T09:56:11;10.15;;;4.82;;
56429;SDS011;42332;52.136;20.666;2023-04-25T09:58:38;9.32;;;5.15;;
56429;SDS011;42332;52.136;20.666;2023-04-25T10:01:08;7.78;;;4.35;;
56429;SDS011;42332;52.136;20.666;2023-04-25T10:03:35;10.18;;;4.90;;
56429;SDS011;42332;52.136;20.666;2023-04-25T10:06:06;9.13;;;4.47;;
56429;SDS011;42332;52.136;20.666;2023-04-25T10:08:33;9.15;;;4.47;;
56429;SDS011;42332;52.136;20.666;2023-04-25T10:11:00;8.05;;;4.35;;
56429;SDS011;42332;52.136;20.666;2023-04-25T10:13:27;7.43;;;3.60;;
56429;SDS011;42332;52.136;20.666;2023-04-25T10:15:53;11.48;;;3.78;;
56429;SDS011;42332;52.136;20.666;2023-04-25T10:18:19;6.28;;;3.30;;
56429;SDS011;42332;52.136;20.666;2023-04-25T10:20:45;8.93;;;3.95;;
56429;SDS011;42332;52.136;20.666;2023-04-25T10:23:12;6.55;;;3.83;;
56429;SDS011;42332;52.136;20.666;2023-04-25T10:25:38;8.23;;;3.90;;
56429;SDS011;42332;52.136;20.666;2023-04-25T10:28:05;8.02;;;3.72;;
56429;SDS011;42332;52.136;20.666;2023-04-25T10:30:31;5.47;;;2.90;;
56429;SDS011;42332;52.136;20.666;2023-04-25T10:32:56;7.55;;;3.63;;
56429;SDS011;42332;52.136;20.666;2023-04-25T10:35:25;8.02;;;4.22;;
56429;SDS011;42332;52.136;20.666;2023-04-25T10:37:58;8.60;;;3.63;;
56429;SDS011;42332;52.136;20.666;2023-04-25T10:40:31;5.82;;;2.80;;
56429;SDS011;42332;52.136;20.666;2023-04-25T10:48:47;6.97;;;3.50;;
56429;SDS011;42332;52.136;20.666;2023-04-25T10:51:20;4.70;;;2.50;;
56429;SDS011;42332;52.136;20.666;2023-04-25T10:53:58;8.27;;;3.80;;
56429;SDS011;42332;52.136;20.666;2023-04-25T10:56:28;5.32;;;2.72;;
56429;SDS011;42332;52.136;20.666;2023-04-25T10:59:11;5.95;;;2.80;;
56429;SDS011;42332;52.136;20.666;2023-04-25T11:01:44;7.88;;;3.50;;
56429;SDS011;42332;52.136;20.666;2023-04-25T11:09:35;14.88;;;5.53;;
56429;SDS011;42332;52.136;20.666;2023-04-25T11:12:03;8.65;;;3.97;;
56429;SDS011;42332;52.136;20.666;2023-04-25T11:14:29;10.75;;;4.97;;
56429;SDS011;42332;52.136;20.666;2023-04-25T11:16:55;11.75;;;6.57;;
56429;SDS011;42332;52.136;20.666;2023-04-25T11:19:22;17.95;;;6.90;;
56429;SDS011;42332;52.136;20.666;2023-04-25T11:21:47;15.50;;;6.75;;
56429;SDS011;42332;52.136;20.666;2023-04-25T11:24:13;12.57;;;5.95;;
56429;SDS011;42332;52.136;20.666;2023-04-25T11:26:38;11.68;;;5.28;;
56429;SDS011;42332;52.136;20.666;2023-04-25T11:29:06;7.60;;;3.40;;
56429;SDS011;42332;52.136;20.666;2023-04-25T11:31:31;8.70;;;4.05;;
56429;SDS011;42332;52.136;20.666;2023-04-25T11:33:56;8.70;;;4.80;;
56429;SDS011;42332;52.136;20.666;2023-04-25T11:36:22;7.65;;;3.78;;
56429;SDS011;42332;52.136;20.666;2023-04-25T11:38:51;6.32;;;3.28;;
56429;SDS011;42332;52.136;20.666;2023-04-25T11:41:18;5.70;;;3.15;;
56429;SDS011;42332;52.136;20.666;2023-04-25T11:43:43;5.28;;;3.22;;
56429;SDS011;42332;52.136;20.666;2023-04-25T11:46:09;6.60;;;3.13;;
56429;SDS011;42332;52.136;20.666;2023-04-25T11:48:38;5.97;;;3.35;;
56429;SDS011;42332;52.136;20.666;2023-04-25T11:51:04;7.13;;;4.05;;
56429;SDS011;42332;52.136;20.666;2023-04-25T11:53:29;10.60;;;5.75;;
56429;SDS011;42332;52.136;20.666;2023-04-25T11:55:55;9.30;;;4.05;;
56429;SDS011;42332;52.136;20.666;2023-04-25T11:58:21;4.45;;;2.20;;
56429;SDS011;42332;52.136;20.666;2023-04-25T12:00:46;9.38;;;4.20;;
56429;SDS011;42332;52.136;20.666;2023-04-25T12:03:12;7.75;;;4.35;;
56429;SDS011;42332;52.136;20.666;2023-04-25T12:05:37;3.17;;;1.80;;
56429;SDS011;42332;52.136;20.666;2023-04-25T12:10:40;6.05;;;3.25;;
56429;SDS011;42332;52.136;20.666;2023-04-25T12:13:22;5.50;;;2.97;;
56429;SDS011;42332;52.136;20.666;2023-04-25T12:15:52;6.85;;;3.70;;
56429;SDS011;42332;52.136;20.666;2023-04-25T12:18:25;6.78;;;4.10;;
56429;SDS011;42332;52.136;20.666;2023-04-25T12:20:52;12.18;;;4.30;;
56429;SDS011;42332;52.136;20.666;2023-04-25T12:23:24;8.57;;;3.88;;
56429;SDS011;42332;52.136;20.666;2023-04-25T12:25:51;6.90;;;4.07;;
56429;SDS011;42332;52.136;20.666;2023-04-25T12:28:20;6.10;;;3.10;;
56429;SDS011;42332;52.136;20.666;2023-04-25T12:31:04;11.20;;;4.95;;
56429;SDS011;42332;52.136;20.666;2023-04-25T12:33:31;10.05;;;4.10;;
56429;SDS011;42332;52.136;20.666;2023-04-25T12:35:58;7.75;;;3.75;;
56429;SDS011;42332;52.136;20.666;2023-04-25T12:38:28;7.80;;;4.20;;
56429;SDS011;42332;52.136;20.666;2023-04-25T12:40:55;6.22;;;3.30;;
56429;SDS011;42332;52.136;20.666;2023-04-25T12:43:20;6.88;;;3.50;;
56429;SDS011;42332;52.136;20.666;2023-04-25T12:45:50;10.07;;;3.88;;
56429;SDS011;42332;52.136;20.666;2023-04-25T12:48:19;10.60;;;5.97;;
56429;SDS011;42332;52.136;20.666;2023-04-25T12:50:45;10.50;;;6.35;;
56429;SDS011;42332;52.136;20.666;2023-04-25T12:53:14;13.70;;;5.93;;
56429;SDS011;42332;52.136;20.666;2023-04-25T12:55:40;11.88;;;5.72;;
56429;SDS011;42332;52.136;20.666;2023-04-25T12:58:05;8.45;;;4.20;;
56429;SDS011;42332;52.136;20.666;2023-04-25T13:00:31;9.05;;;5.00;;
56429;SDS011;42332;52.136;20.666;2023-04-25T13:02:56;8.32;;;3.63;;
56429;SDS011;42332;52.136;20.666;2023-04-25T13:05:22;8.57;;;4.75;;
56429;SDS011;42332;52.136;20.666;2023-04-25T13:07:47;8.85;;;4.10;;
56429;SDS011;42332;52.136;20.666;2023-04-25T13:10:13;9.55;;;4.25;;
56429;SDS011;42332;52.136;20.666;2023-04-25T13:12:38;8.75;;;4.40;;
56429;SDS011;42332;52.136;20.666;2023-04-25T13:15:03;8.82;;;4.38;;
56429;SDS011;42332;52.136;20.666;2023-04-25T13:17:29;10.07;;;5.07;;
56429;SDS011;42332;52.136;20.666;2023-04-25T13:19:55;9.20;;;4.43;;
56429;SDS011;42332;52.136;20.666;2023-04-25T13:22:20;7.30;;;4.15;;
56429;SDS011;42332;52.136;20.666;2023-04-25T13:24:46;10.52;;;4.15;;
56429;SDS011;42332;52.136;20.666;2023-04-25T13:27:11;8.13;;;4.80;;
56429;SDS011;42332;52.136;20.666;2023-04-25T13:29:37;9.02;;;5.10;;
56429;SDS011;42332;52.136;20.666;2023-04-25T13:32:03;9.95;;;5.28;;
56429;SDS011;42332;52.136;20.666;2023-04-25T13:34:29;8.70;;;4.88;;
56429;SDS011;42332;52.136;20.666;2023-04-25T13:36:55;11.98;;;5.50;;
56429;SDS011;42332;52.136;20.666;2023-04-25T13:39:21;9.82;;;5.07;;
56429;SDS011;42332;52.136;20.666;2023-04-25T13:41:46;8.70;;;5.07;;
56429;SDS011;42332;52.136;20.666;2023-04-25T13:44:12;14.15;;;5.60;;
56429;SDS011;42332;52.136;20.666;2023-04-25T13:46:37;19.00;;;8.52;;
56429;SDS011;42332;52.136;20.666;2023-04-25T13:49:03;10.05;;;6.13;;
56429;SDS011;42332;52.136;20.666;2023-04-25T13:51:29;14.90;;;7.55;;
56429;SDS011;42332;52.136;20.666;2023-04-25T13:53:55;15.50;;;8.15;;
56429;SDS011;42332;52.136;20.666;2023-04-25T13:56:21;14.27;;;9.63;;
56429;SDS011;42332;52.136;20.666;2023-04-25T13:58:47;14.88;;;6.68;;
56429;SDS011;42332;52.136;20.666;2023-04-25T14:01:12;12.05;;;6.22;;
56429;SDS011;42332;52.136;20.666;2023-04-25T14:03:37;11.40;;;6.32;;
56429;SDS011;42332;52.136;20.666;2023-04-25T14:06:03;12.32;;;6.72;;
56429;SDS011;42332;52.136;20.666;2023-04-25T14:08:29;10.82;;;6.55;;
56429;SDS011;42332;52.136;20.666;2023-04-25T14:10:54;11.73;;;4.63;;
56429;SDS011;42332;52.136;20.666;2023-04-25T14:13:20;12.75;;;5.95;;
56429;SDS011;42332;52.136;20.666;2023-04-25T14:15:45;12.93;;;6.50;;
56429;SDS011;42332;52.136;20.666;2023-04-25T14:18:11;17.88;;;7.10;;
56429;SDS011;42332;52.136;20.666;2023-04-25T14:20:36;13.20;;;6.57;;
56429;SDS011;42332;52.136;20.666;2023-04-25T14:23:01;9.23;;;5.20;;
56429;SDS011;42332;52.136;20.666;2023-04-25T14:25:27;14.90;;;6.85;;
56429;SDS011;42332;52.136;20.666;2023-04-25T14:27:54;12.63;;;6.90;;
56429;SDS011;42332;52.136;20.666;2023-04-25T14:30:20;6.57;;;3.95;;
56429;SDS011;42332;52.136;20.666;2023-04-25T14:32:46;9.52;;;4.65;;
56429;SDS011;42332;52.136;20.666;2023-04-25T14:35:11;8.40;;;4.63;;